createdAt,value
2022-10-18T00:02:27.379Z,14.86
2022-10-18T00:07:31.453Z,15.06
2022-10-18T00:12:35.707Z,14.88
2022-10-18T00:17:41.253Z,14.99
2022-10-18T00:22:44.968Z,14.80
2022-10-18T00:27:48.714Z,14.50
2022-10-18T00:32:53.737Z,14.36
2022-10-18T00:37:57.339Z,14.62
2022-10-18T00:43:01.237Z,14.34
2022-10-18T00:48:06.750Z,14.32
2022-10-18T00:53:13.305Z,14.70
2022-10-18T00:58:19.374Z,14.32
2022-10-18T01:03:24.757Z,14.21
2022-10-18T01:08:45.745Z,14.40
2022-10-18T01:13:56.727Z,14.60
2022-10-18T01:19:05.494Z,14.77
2022-10-18T01:24:24.248Z,14.27
2022-10-18T01:29:34.341Z,14.71
2022-10-18T01:34:41.287Z,14.58
2022-10-18T01:39:46.533Z,14.44
2022-10-18T01:44:52.274Z,14.22
2022-10-18T01:50:00.197Z,14.22
2022-10-18T01:55:04.663Z,15.15
2022-10-18T02:00:12.706Z,15.09
2022-10-18T02:05:24.747Z,15.15
2022-10-18T02:10:31.050Z,15.47
2022-10-18T02:15:37.110Z,15.03
2022-10-18T02:20:42.503Z,15.43
2022-10-18T02:25:46.410Z,15.75
2022-10-18T02:30:53.617Z,14.58
2022-10-18T02:36:01.194Z,14.98
2022-10-18T02:41:05.158Z,14.43
2022-10-18T02:46:09.003Z,14.99
2022-10-18T02:51:17.015Z,14.87
2022-10-18T02:56:20.691Z,14.70
2022-10-18T03:01:26.238Z,15.22
2022-10-18T03:06:33.193Z,15.35
2022-10-18T03:11:39.720Z,15.31
2022-10-18T03:16:46.621Z,15.50
2022-10-18T03:21:55.394Z,15.68
2022-10-18T03:27:00.013Z,15.91
2022-10-18T03:32:06.310Z,15.78
2022-10-18T03:37:13.613Z,16.07
2022-10-18T03:42:17.422Z,15.28
2022-10-18T03:47:21.521Z,14.94
2022-10-18T03:52:26.930Z,15.54
2022-10-18T03:57:32.131Z,14.70
2022-10-18T04:02:38.114Z,15.12
2022-10-18T04:07:45.908Z,14.90
2022-10-18T04:12:51.690Z,14.96
2022-10-18T04:17:57.444Z,14.77
2022-10-18T04:23:05.486Z,14.76
2022-10-18T04:28:11.980Z,15.24
2022-10-18T04:33:18.165Z,15.78
2022-10-18T04:38:26.494Z,15.63
2022-10-18T04:43:33.005Z,15.28
2022-10-18T04:48:40.295Z,14.62
2022-10-18T04:53:52.699Z,15.06
2022-10-18T04:59:00.163Z,15.19
2022-10-18T05:04:06.539Z,15.06
2022-10-18T05:09:14.898Z,15.15
2022-10-18T05:14:20.884Z,14.96
2022-10-18T05:19:27.556Z,15.10
2022-10-18T05:24:39.425Z,15.07
2022-10-18T05:29:46.953Z,15.46
2022-10-18T05:34:54.471Z,15.88
2022-10-18T05:40:01.814Z,16.50
2022-10-18T05:45:08.432Z,16.20
2022-10-18T05:50:15.577Z,15.92
2022-10-18T05:55:23.994Z,15.87
2022-10-18T06:00:30.734Z,16.31
2022-10-18T06:05:37.066Z,16.36
2022-10-18T06:10:45.372Z,15.94
2022-10-18T06:15:51.823Z,16.55
2022-10-18T06:21:01.735Z,16.18
2022-10-18T06:26:10.288Z,16.81
2022-10-18T06:31:16.804Z,16.31
2022-10-18T06:36:23.940Z,16.22
2022-10-18T06:41:31.986Z,16.85
2022-10-18T06:46:55.869Z,16.61
2022-10-18T06:52:04.620Z,17.16
2022-10-18T06:57:12.511Z,17.38
2022-10-18T07:02:19.313Z,17.11
2022-10-18T07:07:26.044Z,17.22
2022-10-18T07:12:33.894Z,17.83
2022-10-18T07:17:38.463Z,17.84
2022-10-18T07:22:42.285Z,18.09
2022-10-18T07:27:48.032Z,18.42
2022-10-18T07:32:52.294Z,18.06
2022-10-18T07:37:56.049Z,18.14
2022-10-18T07:43:04.596Z,19.02
2022-10-18T07:48:09.018Z,18.88
2022-10-18T07:53:14.042Z,18.28
2022-10-18T07:58:23.138Z,18.00
2022-10-18T08:03:29.705Z,18.58
2022-10-18T08:08:36.911Z,18.77
2022-10-18T08:13:44.954Z,19.39
2022-10-18T08:18:51.355Z,19.11
2022-10-18T08:24:01.754Z,18.88
2022-10-18T08:29:22.425Z,19.98
2022-10-18T08:34:58.957Z,19.37
2022-10-18T08:40:31.159Z,19.03
2022-10-18T08:45:43.397Z,19.25
2022-10-18T08:50:50.823Z,19.11
2022-10-18T08:56:15.886Z,19.87
2022-10-18T09:01:28.924Z,19.51
2022-10-18T09:06:37.219Z,19.57
2022-10-18T09:11:52.796Z,20.19
2022-10-18T09:17:16.441Z,19.79
2022-10-18T09:22:27.559Z,20.48
2022-10-18T09:27:39.212Z,20.25
2022-10-18T09:32:48.572Z,19.99
2022-10-18T09:38:03.943Z,20.70
2022-10-18T09:43:13.594Z,20.40
2022-10-18T09:48:22.886Z,20.51
2022-10-18T09:53:37.615Z,20.78
2022-10-18T09:58:46.010Z,21.12
2022-10-18T10:03:52.603Z,21.28
2022-10-18T10:09:07.568Z,21.85
2022-10-18T10:19:27.694Z,21.48
2022-10-18T10:24:46.165Z,21.68
2022-10-18T10:30:12.808Z,21.70
2022-10-18T10:35:42.151Z,21.53
2022-10-18T10:41:20.407Z,22.53
2022-10-18T10:46:45.730Z,21.42
2022-10-18T10:52:08.590Z,21.67
2022-10-18T10:57:25.525Z,20.93
2022-10-18T11:02:33.457Z,21.24
2022-10-18T11:07:43.507Z,21.96
2022-10-18T11:12:55.159Z,21.66
2022-10-18T11:18:03.713Z,21.95
2022-10-18T11:23:08.391Z,21.60
2022-10-18T11:28:18.835Z,21.60
2022-10-18T11:33:56.272Z,21.98
2022-10-18T11:38:59.575Z,21.72
2022-10-18T11:44:11.350Z,22.87
2022-10-18T11:49:28.024Z,22.81
2022-10-18T11:54:42.390Z,24.04
2022-10-18T12:00:19.704Z,25.39
2022-10-18T12:05:47.326Z,24.86
2022-10-18T12:11:04.966Z,24.76
2022-10-18T12:16:50.024Z,24.50
2022-10-18T12:29:07.198Z,25.50
2022-10-18T12:34:45.987Z,27.26
2022-10-18T12:40:37.812Z,27.27
2022-10-18T12:51:25.525Z,24.98
2022-10-18T12:56:43.757Z,25.36
2022-10-18T13:02:33.796Z,25.23
2022-10-18T13:07:51.205Z,25.57
2022-10-18T13:13:40.275Z,24.70
2022-10-18T13:19:13.261Z,24.44
2022-10-18T13:24:49.998Z,24.45
2022-10-18T13:30:26.160Z,24.88
2022-10-18T13:35:57.566Z,24.36
2022-10-18T13:47:08.557Z,24.47
2022-10-18T13:52:45.910Z,24.34
2022-10-18T13:58:30.890Z,24.28
2022-10-18T14:10:43.714Z,24.05
2022-10-18T14:16:38.226Z,23.75
2022-10-18T14:22:39.798Z,23.96
2022-10-18T14:28:59.472Z,23.98
2022-10-18T14:34:40.952Z,23.96
2022-10-18T14:40:49.357Z,23.17
2022-10-18T14:46:31.785Z,23.85
2022-10-18T14:51:57.676Z,23.34
2022-10-18T14:57:41.631Z,24.05
2022-10-18T15:03:56.771Z,23.19
2022-10-18T15:15:40.720Z,23.30
2022-10-18T15:28:34.906Z,21.97
2022-10-18T15:34:27.825Z,20.41
2022-10-18T15:40:09.728Z,19.95
2022-10-18T15:45:32.801Z,19.34
2022-10-18T15:50:41.236Z,19.43
2022-10-18T15:55:49.323Z,19.72
2022-10-18T16:00:57.360Z,19.91
2022-10-18T16:06:04.483Z,19.46
2022-10-18T16:11:08.343Z,19.42
2022-10-18T16:16:15.518Z,18.60
2022-10-18T16:21:20.764Z,18.62
2022-10-18T16:26:25.304Z,17.99
2022-10-18T16:31:31.688Z,18.30
2022-10-18T16:36:35.466Z,18.70
2022-10-18T16:41:39.252Z,18.33
2022-10-18T16:46:44.905Z,17.92
2022-10-18T16:51:48.583Z,18.33
2022-10-18T16:56:53.249Z,18.13
2022-10-18T17:01:58.558Z,17.97
2022-10-18T17:07:02.435Z,17.76
2022-10-18T17:12:06.434Z,17.82
2022-10-18T17:17:13.066Z,17.91
2022-10-18T17:22:16.835Z,17.71
2022-10-18T17:27:20.706Z,17.71
2022-10-18T17:32:25.840Z,17.22
2022-10-18T17:37:29.784Z,16.87
2022-10-18T17:42:33.378Z,16.87
2022-10-18T17:47:38.691Z,16.99
2022-10-18T17:57:52.649Z,16.81
2022-10-18T18:03:00.582Z,16.38
2022-10-18T18:08:04.998Z,17.04
2022-10-18T18:13:08.691Z,16.13
2022-10-18T18:18:13.689Z,16.51
2022-10-18T18:23:17.326Z,17.11
2022-10-18T18:28:21.457Z,17.24
2022-10-18T18:33:26.711Z,16.03
2022-10-18T18:38:33.345Z,16.62
2022-10-18T18:43:37.585Z,16.11
2022-10-18T18:48:42.889Z,15.95
2022-10-18T18:53:47.288Z,16.15
2022-10-18T18:58:51.137Z,16.10
2022-10-18T19:03:57.202Z,16.18
2022-10-18T19:09:04.862Z,16.10
2022-10-18T19:14:09.428Z,15.99
2022-10-18T19:19:15.218Z,15.96
2022-10-18T19:24:19.042Z,15.77
2022-10-18T19:29:23.941Z,15.89
2022-10-18T19:34:29.679Z,15.60
2022-10-18T19:39:34.525Z,15.71
2022-10-18T19:44:38.837Z,17.10
2022-10-18T19:49:43.774Z,16.63
2022-10-18T19:54:49.231Z,16.94
2022-10-18T19:59:53.712Z,15.75
2022-10-18T20:04:59.724Z,16.14
2022-10-18T20:10:03.720Z,16.55
2022-10-18T20:15:08.964Z,16.12
2022-10-18T20:20:14.334Z,16.47
2022-10-18T20:25:18.012Z,16.28
2022-10-18T20:30:21.787Z,16.12
2022-10-18T20:35:26.720Z,16.63
2022-10-18T20:46:34.364Z,16.57
2022-10-18T20:51:38.311Z,16.05
2022-10-18T20:56:42.145Z,16.04
2022-10-18T21:01:47.554Z,16.45
2022-10-18T21:06:51.535Z,16.79
2022-10-18T21:11:56.287Z,16.16
2022-10-18T21:17:02.159Z,15.05
2022-10-18T21:22:06.173Z,15.99
2022-10-18T21:27:09.982Z,15.58
2022-10-18T21:32:15.285Z,16.07
2022-10-18T21:37:19.297Z,15.47
2022-10-18T21:42:23.283Z,15.48
2022-10-18T21:47:29.099Z,15.69
2022-10-18T21:52:33.068Z,16.04
2022-10-18T21:57:37.687Z,16.51
2022-10-18T22:02:42.953Z,15.84
2022-10-18T22:07:46.782Z,15.85
2022-10-18T22:12:51.275Z,16.02
2022-10-18T22:17:57.367Z,15.20
2022-10-18T22:23:01.282Z,14.52
2022-10-18T22:28:05.779Z,14.71
2022-10-18T22:33:11.039Z,14.02
2022-10-18T22:38:15.268Z,13.84
2022-10-18T22:43:19.084Z,13.26
2022-10-18T22:48:25.218Z,13.32
2022-10-18T22:53:29.411Z,13.41
2022-10-18T22:58:33.811Z,13.59
2022-10-18T23:03:40.785Z,13.31
2022-10-18T23:08:44.758Z,13.48
2022-10-18T23:13:48.833Z,13.89
2022-10-18T23:18:57.253Z,12.90
2022-10-18T23:24:02.553Z,13.09
2022-10-18T23:29:07.058Z,13.56
2022-10-18T23:34:12.779Z,13.74
2022-10-18T23:39:16.730Z,13.15
2022-10-18T23:44:20.650Z,12.27
2022-10-18T23:49:26.000Z,12.35
2022-10-18T23:54:29.946Z,12.24
2022-10-18T23:59:33.791Z,11.92
